createdAt,value
2018-09-04T00:00:56.146Z,31.37
2018-09-04T00:03:24.535Z,33.53
2018-09-04T00:05:52.730Z,34.13
2018-09-04T00:08:21.207Z,32.53
2018-09-04T00:10:49.474Z,31.10
2018-09-04T00:13:17.709Z,28.57
2018-09-04T00:15:45.986Z,33.77
2018-09-04T00:18:14.324Z,34.40
2018-09-04T00:20:42.488Z,30.93
2018-09-04T00:23:10.892Z,34.97
2018-09-04T00:25:39.074Z,33.33
2018-09-04T00:28:07.440Z,32.70
2018-09-04T00:30:35.582Z,33.10
2018-09-04T00:33:03.820Z,36.07
2018-09-04T00:35:32.075Z,34.87
2018-09-04T00:38:00.415Z,38.27
2018-09-04T00:40:28.561Z,36.03
2018-09-04T00:42:56.947Z,34.07
2018-09-04T00:45:25.113Z,38.80
2018-09-04T00:47:53.444Z,36.43
2018-09-04T00:50:21.740Z,36.57
2018-09-04T00:52:49.974Z,35.23
2018-09-04T00:55:18.405Z,36.97
2018-09-04T00:57:46.606Z,36.67
2018-09-04T01:00:14.828Z,37.40
2018-09-04T01:02:43.328Z,37.60
2018-09-04T01:05:11.737Z,36.60
2018-09-04T01:07:40.070Z,36.67
2018-09-04T01:10:08.240Z,34.10
2018-09-04T01:12:36.700Z,32.53
2018-09-04T01:15:05.288Z,33.80
2018-09-04T01:17:33.708Z,31.80
2018-09-04T01:20:02.083Z,32.43
2018-09-04T01:22:30.516Z,31.13
2018-09-04T01:24:58.814Z,33.97
2018-09-04T01:27:27.039Z,37.37
2018-09-04T01:29:55.381Z,30.67
2018-09-04T01:32:23.493Z,32.53
2018-09-04T01:34:51.670Z,33.03
2018-09-04T01:37:19.988Z,29.87
2018-09-04T01:39:48.465Z,28.33
2018-09-04T01:42:16.559Z,27.97
2018-09-04T01:44:44.871Z,30.07
2018-09-04T01:47:12.973Z,32.23
2018-09-04T01:49:41.303Z,28.37
2018-09-04T01:52:09.453Z,27.53
2018-09-04T01:54:37.681Z,32.13
2018-09-04T01:57:05.817Z,29.87
2018-09-04T01:59:33.973Z,26.00
2018-09-04T02:02:02.142Z,32.67
2018-09-04T02:04:30.345Z,28.93
2018-09-04T02:06:58.526Z,30.47
2018-09-04T02:09:26.995Z,28.13
2018-09-04T02:11:55.327Z,29.37
2018-09-04T02:14:23.885Z,26.90
2018-09-04T02:16:52.191Z,26.53
2018-09-04T02:19:20.871Z,32.47
2018-09-04T02:21:49.502Z,28.87
2018-09-04T02:24:17.705Z,29.17
2018-09-04T02:26:45.920Z,28.87
2018-09-04T02:29:14.240Z,29.13
2018-09-04T02:31:42.570Z,30.73
2018-09-04T02:34:10.706Z,26.73
2018-09-04T02:36:38.909Z,27.17
2018-09-04T02:39:09.627Z,29.83
2018-09-04T02:41:37.941Z,27.63
2018-09-04T02:44:06.578Z,26.03
2018-09-04T02:46:35.723Z,25.60
2018-09-04T02:49:04.558Z,24.60
2018-09-04T02:51:32.797Z,25.47
2018-09-04T02:54:01.452Z,27.13
2018-09-04T02:56:29.800Z,23.80
2018-09-04T02:58:58.100Z,25.00
2018-09-04T03:01:26.710Z,24.93
2018-09-04T03:03:55.132Z,26.87
2018-09-04T03:06:23.320Z,22.87
2018-09-04T03:08:51.528Z,23.47
2018-09-04T03:11:19.710Z,26.97
2018-09-04T03:13:48.079Z,25.80
2018-09-04T03:16:16.540Z,25.70
2018-09-04T03:18:44.707Z,21.13
2018-09-04T03:21:12.824Z,22.67
2018-09-04T03:23:41.081Z,21.20
2018-09-04T03:26:09.323Z,24.60
2018-09-04T03:28:37.610Z,22.30
2018-09-04T03:31:06.159Z,19.63
2018-09-04T03:33:34.441Z,22.50
2018-09-04T03:36:02.625Z,19.23
2018-09-04T03:38:30.932Z,21.17
2018-09-04T03:40:59.228Z,19.50
2018-09-04T03:43:27.545Z,23.60
2018-09-04T03:45:56.167Z,20.53
2018-09-04T03:48:24.966Z,20.23
2018-09-04T03:50:53.323Z,19.03
2018-09-04T03:53:21.497Z,18.93
2018-09-04T03:55:49.886Z,18.33
2018-09-04T03:58:18.032Z,19.57
2018-09-04T04:00:46.365Z,18.30
2018-09-04T04:03:14.528Z,18.67
2018-09-04T04:05:42.711Z,19.00
2018-09-04T04:08:10.992Z,19.87
2018-09-04T04:10:39.290Z,21.40
2018-09-04T04:13:07.603Z,21.67
2018-09-04T04:15:35.993Z,21.00
2018-09-04T04:18:04.911Z,18.03
2018-09-04T04:20:33.078Z,17.63
2018-09-04T04:23:01.450Z,17.00
2018-09-04T04:25:30.547Z,16.73
2018-09-04T04:27:59.401Z,18.30
2018-09-04T04:30:27.723Z,18.73
2018-09-04T04:32:56.160Z,18.23
2018-09-04T04:35:24.385Z,18.50
2018-09-04T04:37:52.803Z,20.73
2018-09-04T04:40:21.895Z,24.10
2018-09-04T04:42:50.952Z,18.77
2018-09-04T04:45:19.147Z,19.73
2018-09-04T04:47:47.801Z,17.43
2018-09-04T04:50:16.915Z,17.70
2018-09-04T04:52:45.133Z,18.37
2018-09-04T04:55:14.278Z,18.63
2018-09-04T04:57:42.392Z,18.47
2018-09-04T05:00:10.653Z,18.23
2018-09-04T05:02:39.094Z,23.93
2018-09-04T05:05:07.368Z,16.60
2018-09-04T05:07:35.814Z,18.10
2018-09-04T05:10:04.066Z,20.20
2018-09-04T05:12:32.260Z,20.57
2018-09-04T05:15:00.443Z,20.60
2018-09-04T05:17:28.664Z,21.20
2018-09-04T05:19:56.805Z,19.30
2018-09-04T05:22:25.082Z,18.73
2018-09-04T05:24:53.328Z,18.33
2018-09-04T05:27:21.708Z,22.37
2018-09-04T05:29:49.890Z,19.00
2018-09-04T05:32:37.472Z,21.23
2018-09-04T05:35:06.056Z,23.30
2018-09-04T05:37:34.465Z,20.90
2018-09-04T05:40:02.564Z,20.97
2018-09-04T05:42:34.071Z,22.43
2018-09-04T05:45:02.935Z,17.83
2018-09-04T05:47:34.120Z,24.87
2018-09-04T05:50:03.212Z,22.23
2018-09-04T05:52:31.480Z,24.33
2018-09-04T05:54:59.762Z,21.73
2018-09-04T05:57:28.058Z,24.87
2018-09-04T05:59:56.226Z,19.40
2018-09-04T06:02:24.601Z,20.10
2018-09-04T06:04:52.812Z,17.73
2018-09-04T06:07:21.647Z,18.27
2018-09-04T06:09:49.766Z,22.20
2018-09-04T06:12:17.906Z,20.57
2018-09-04T06:14:46.037Z,19.53
2018-09-04T06:17:14.251Z,17.17
2018-09-04T06:19:42.599Z,18.70
2018-09-04T06:22:10.804Z,20.77
2018-09-04T06:24:39.132Z,21.03
2018-09-04T06:27:07.465Z,22.70
2018-09-04T06:29:35.643Z,23.90
2018-09-04T06:32:03.767Z,20.30
2018-09-04T06:34:33.623Z,20.50
2018-09-04T06:37:01.838Z,16.00
2018-09-04T06:39:29.978Z,19.67
2018-09-04T06:41:58.186Z,16.00
2018-09-04T06:44:26.470Z,21.67
2018-09-04T06:46:55.230Z,19.70
2018-09-04T06:49:23.469Z,20.03
2018-09-04T06:51:51.564Z,18.97
2018-09-04T06:54:19.818Z,18.77
2018-09-04T06:56:48.249Z,17.53
2018-09-04T06:59:16.371Z,16.83
2018-09-04T07:01:44.530Z,19.43
2018-09-04T07:04:12.918Z,18.83
2018-09-04T07:06:41.084Z,16.83
2018-09-04T07:09:11.343Z,17.63
2018-09-04T07:11:39.540Z,15.47
2018-09-04T07:14:08.036Z,16.67
2018-09-04T07:16:36.318Z,17.63
2018-09-04T07:19:05.253Z,16.83
2018-09-04T07:21:33.546Z,16.80
2018-09-04T07:24:01.920Z,17.23
2018-09-04T07:26:30.210Z,18.53
2018-09-04T07:28:58.628Z,16.57
2018-09-04T07:31:26.840Z,19.50
2018-09-04T07:33:55.014Z,18.53
2018-09-04T07:36:23.216Z,15.67
2018-09-04T07:38:51.592Z,19.23
2018-09-04T07:41:20.086Z,14.87
2018-09-04T07:43:48.313Z,17.40
2018-09-04T07:46:16.500Z,17.27
2018-09-04T07:48:45.294Z,15.50
2018-09-04T07:51:13.507Z,12.50
2018-09-04T07:53:41.861Z,20.90
2018-09-04T07:56:10.069Z,19.60
2018-09-04T07:58:38.266Z,15.93
2018-09-04T08:01:06.602Z,20.68
2018-09-04T08:03:35.017Z,16.90
2018-09-04T08:06:03.211Z,14.90
2018-09-04T08:08:31.557Z,13.32
2018-09-04T08:10:59.819Z,15.95
2018-09-04T08:13:27.965Z,14.33
2018-09-04T08:15:56.701Z,18.87
2018-09-04T08:18:24.886Z,14.85
2018-09-04T08:20:53.164Z,18.20
2018-09-04T08:23:21.304Z,14.75
2018-09-04T08:25:49.508Z,11.83
2018-09-04T08:28:17.667Z,13.65
2018-09-04T08:30:45.896Z,15.08
2018-09-04T08:33:14.205Z,9.60
2018-09-04T08:35:42.382Z,11.43
2018-09-04T08:38:11.281Z,17.20
2018-09-04T08:40:39.427Z,12.70
2018-09-04T08:43:07.727Z,10.40
2018-09-04T08:45:35.912Z,9.20
2018-09-04T08:48:08.726Z,12.40
2018-09-04T08:50:37.035Z,15.03
2018-09-04T08:53:05.209Z,11.70
2018-09-04T08:55:33.419Z,15.05
2018-09-04T08:58:01.655Z,14.30
2018-09-04T09:00:29.870Z,11.25
2018-09-04T09:02:58.074Z,10.72
2018-09-04T09:05:26.234Z,15.55
2018-09-04T09:07:54.481Z,10.13
2018-09-04T09:10:22.773Z,17.32
2018-09-04T09:12:50.937Z,16.17
2018-09-04T09:15:19.235Z,12.05
2018-09-04T09:17:47.475Z,10.18
2018-09-04T09:20:15.773Z,11.00
2018-09-04T09:22:43.903Z,9.40
2018-09-04T09:25:12.214Z,15.10
2018-09-04T09:27:40.478Z,14.45
2018-09-04T09:30:08.771Z,15.20
2018-09-04T09:32:37.010Z,11.35
2018-09-04T09:35:05.322Z,10.30
2018-09-04T09:37:33.466Z,18.55
2018-09-04T09:40:01.650Z,14.33
2018-09-04T09:42:29.868Z,16.57
2018-09-04T09:44:58.173Z,20.20
2018-09-04T09:47:26.452Z,16.52
2018-09-04T09:49:54.663Z,16.27
2018-09-04T09:52:22.917Z,12.55
2018-09-04T09:54:51.047Z,18.48
2018-09-04T09:57:19.443Z,9.23
2018-09-04T09:59:47.610Z,13.35
2018-09-04T10:02:19.884Z,15.23
2018-09-04T10:04:48.194Z,12.70
2018-09-04T10:07:16.426Z,12.75
2018-09-04T10:09:44.676Z,13.65
2018-09-04T10:12:12.981Z,13.55
2018-09-04T10:14:41.195Z,17.30
2018-09-04T10:17:09.613Z,13.62
2018-09-04T10:19:37.738Z,14.10
2018-09-04T10:22:05.949Z,12.15
2018-09-04T10:24:34.312Z,10.13
2018-09-04T10:27:02.541Z,8.75
2018-09-04T10:29:30.676Z,11.00
2018-09-04T10:31:58.849Z,8.95
2018-09-04T10:34:27.103Z,11.18
2018-09-04T10:36:55.332Z,9.48
2018-09-04T10:39:29.433Z,11.30
2018-09-04T10:41:57.697Z,13.72
2018-09-04T10:44:30.446Z,9.80
2018-09-04T10:46:58.637Z,10.10
2018-09-04T10:49:26.835Z,9.53
2018-09-04T10:51:55.082Z,8.20
2018-09-04T10:54:23.297Z,10.55
2018-09-04T10:56:51.521Z,8.65
2018-09-04T10:59:19.751Z,8.63
2018-09-04T11:01:48.075Z,10.30
2018-09-04T11:04:16.354Z,8.08
2018-09-04T11:06:44.544Z,8.03
2018-09-04T11:09:12.842Z,8.15
2018-09-04T11:11:41.932Z,7.53
2018-09-04T11:14:10.304Z,9.78
2018-09-04T11:16:39.317Z,9.40
2018-09-04T11:19:07.538Z,9.48
2018-09-04T11:21:35.763Z,8.40
2018-09-04T11:24:04.039Z,9.88
2018-09-04T11:26:32.864Z,8.13
2018-09-04T11:29:04.591Z,9.43
2018-09-04T11:31:32.832Z,8.48
2018-09-04T11:34:01.168Z,9.38
2018-09-04T11:36:29.305Z,6.58
2018-09-04T11:38:57.436Z,10.40
2018-09-04T11:41:25.697Z,9.98
2018-09-04T11:43:53.898Z,8.68
2018-09-04T11:46:22.205Z,10.58
2018-09-04T11:48:50.336Z,10.75
2018-09-04T11:51:18.722Z,10.20
2018-09-04T11:53:46.909Z,12.10
2018-09-04T11:56:19.045Z,13.15
2018-09-04T11:58:47.533Z,11.57
2018-09-04T12:01:17.385Z,12.43
2018-09-04T12:03:45.812Z,12.40
2018-09-04T12:06:14.184Z,14.15
2018-09-04T12:08:42.383Z,11.83
2018-09-04T12:11:10.619Z,11.70
2018-09-04T12:13:38.849Z,12.47
2018-09-04T12:16:07.016Z,10.25
2018-09-04T12:18:35.147Z,10.60
2018-09-04T12:21:08.679Z,9.25
2018-09-04T12:23:36.829Z,11.10
2018-09-04T12:26:06.521Z,9.53
2018-09-04T12:28:34.795Z,9.78
2018-09-04T12:31:03.343Z,11.00
2018-09-04T12:33:31.603Z,8.43
2018-09-04T12:35:59.766Z,9.60
2018-09-04T12:38:32.888Z,8.80
2018-09-04T12:41:06.553Z,8.38
2018-09-04T12:43:36.732Z,8.15
2018-09-04T12:46:05.214Z,7.60
2018-09-04T12:48:33.476Z,7.37
2018-09-04T12:51:02.458Z,7.72
2018-09-04T12:53:31.470Z,7.35
2018-09-04T12:55:59.656Z,6.60
2018-09-04T12:58:27.819Z,8.50
2018-09-04T13:00:56.762Z,8.78
2018-09-04T13:03:26.851Z,10.00
2018-09-04T13:05:55.208Z,8.55
2018-09-04T13:08:25.128Z,9.18
2018-09-04T13:10:53.401Z,8.98
2018-09-04T13:13:21.612Z,9.10
2018-09-04T13:15:51.668Z,9.28
2018-09-04T13:18:20.081Z,10.93
2018-09-04T13:20:48.310Z,10.95
2018-09-04T13:23:16.595Z,10.63
2018-09-04T13:25:44.790Z,11.10
2018-09-04T13:28:13.059Z,10.35
2018-09-04T13:30:41.311Z,9.25
2018-09-04T13:33:09.517Z,10.65
2018-09-04T13:35:37.905Z,10.78
2018-09-04T13:38:06.671Z,9.73
2018-09-04T13:40:34.817Z,10.95
2018-09-04T13:43:03.094Z,13.30
2018-09-04T13:45:31.332Z,9.80
2018-09-04T13:48:00.185Z,11.68
2018-09-04T13:50:28.663Z,9.83
2018-09-04T13:52:56.961Z,9.38
2018-09-04T13:55:25.223Z,8.65
2018-09-04T13:57:53.393Z,8.85
2018-09-04T14:00:22.596Z,10.20
2018-09-04T14:02:50.838Z,9.60
2018-09-04T14:05:19.054Z,8.45
2018-09-04T14:07:47.279Z,9.50
2018-09-04T14:10:15.436Z,8.55
2018-09-04T14:12:43.594Z,9.20
2018-09-04T14:15:11.844Z,7.05
2018-09-04T14:17:40.042Z,7.15
2018-09-04T14:20:08.277Z,9.15
2018-09-04T14:22:36.607Z,9.18
2018-09-04T14:25:04.837Z,8.73
2018-09-04T14:27:33.009Z,8.28
2018-09-04T14:30:16.459Z,9.75
2018-09-04T14:32:29.652Z,8.75
2018-09-04T14:34:57.837Z,8.55
2018-09-04T14:37:25.980Z,8.15
2018-09-04T14:39:55.587Z,8.73
2018-09-04T14:42:22.433Z,8.35
2018-09-04T14:44:50.716Z,8.73
2018-09-04T14:47:18.856Z,9.68
2018-09-04T14:49:47.082Z,8.20
2018-09-04T14:52:15.299Z,8.43
2018-09-04T14:54:44.204Z,8.78
2018-09-04T14:57:12.349Z,8.73
2018-09-04T14:59:40.633Z,7.45
2018-09-04T15:02:08.873Z,8.20
2018-09-04T15:04:37.089Z,8.03
2018-09-04T15:07:05.339Z,7.35
2018-09-04T15:09:33.558Z,8.38
2018-09-04T15:12:01.975Z,8.75
2018-09-04T15:14:30.178Z,8.80
2018-09-04T15:16:59.387Z,9.53
2018-09-04T15:19:27.912Z,7.87
2018-09-04T15:21:56.107Z,9.00
2018-09-04T15:24:24.232Z,7.95
2018-09-04T15:26:52.532Z,8.53
2018-09-04T15:29:20.689Z,8.18
2018-09-04T15:31:48.835Z,7.17
2018-09-04T15:34:17.052Z,7.60
2018-09-04T15:36:45.261Z,8.78
2018-09-04T15:39:13.549Z,8.80
2018-09-04T15:41:41.751Z,8.25
2018-09-04T15:44:10.018Z,6.83
2018-09-04T15:46:38.205Z,7.50
2018-09-04T15:49:11.973Z,9.15
2018-09-04T15:51:40.077Z,6.92
2018-09-04T15:54:08.201Z,8.25
2018-09-04T15:56:36.489Z,6.92
2018-09-04T15:59:04.793Z,8.95
2018-09-04T16:01:33.029Z,8.48
2018-09-04T16:04:01.275Z,8.58
2018-09-04T16:06:29.484Z,6.53
2018-09-04T16:08:57.845Z,6.25
2018-09-04T16:11:26.051Z,7.50
2018-09-04T16:13:54.159Z,5.90
2018-09-04T16:16:22.375Z,6.70
2018-09-04T16:18:50.645Z,6.73
2018-09-04T16:21:19.520Z,7.20
2018-09-04T16:23:47.685Z,6.10
2018-09-04T16:26:15.884Z,8.57
2018-09-04T16:28:44.018Z,5.90
2018-09-04T16:31:12.165Z,7.40
2018-09-04T16:33:40.412Z,7.43
2018-09-04T16:36:08.684Z,8.97
2018-09-04T16:38:36.915Z,6.20
2018-09-04T16:41:05.171Z,7.50
2018-09-04T16:43:33.405Z,6.17
2018-09-04T16:46:01.686Z,5.57
2018-09-04T16:48:30.894Z,6.40
2018-09-04T16:51:00.366Z,5.97
2018-09-04T16:53:30.442Z,5.77
2018-09-04T16:55:59.507Z,6.83
2018-09-04T16:58:27.746Z,6.00
2018-09-04T17:00:55.904Z,5.20
2018-09-04T17:03:24.314Z,7.30
2018-09-04T17:05:52.562Z,5.53
2018-09-04T17:08:20.798Z,7.30
2018-09-04T17:10:49.080Z,5.53
2018-09-04T17:13:17.270Z,5.80
2018-09-04T17:15:45.464Z,6.10
2018-09-04T17:18:13.702Z,7.70
2018-09-04T17:20:41.933Z,5.77
2018-09-04T17:23:10.139Z,5.83
2018-09-04T17:25:38.452Z,5.83
2018-09-04T17:28:06.674Z,5.77
2018-09-04T17:30:34.892Z,6.70
2018-09-04T17:33:03.201Z,6.50
2018-09-04T17:35:31.486Z,7.90
2018-09-04T17:37:59.746Z,8.10
2018-09-04T17:40:27.976Z,6.67
2018-09-04T17:42:56.323Z,6.07
2018-09-04T17:45:24.508Z,7.67
2018-09-04T17:47:52.758Z,6.67
2018-09-04T17:50:20.910Z,8.30
2018-09-04T17:52:49.045Z,6.63
2018-09-04T17:55:17.272Z,9.67
2018-09-04T17:57:45.538Z,6.43
2018-09-04T18:00:13.761Z,6.53
2018-09-04T18:02:41.990Z,7.17
2018-09-04T18:05:10.268Z,5.90
2018-09-04T18:08:09.540Z,6.23
2018-09-04T18:10:37.692Z,9.50
2018-09-04T18:13:05.885Z,6.03
2018-09-04T18:15:34.086Z,6.23
2018-09-04T18:18:02.247Z,7.67
2018-09-04T18:20:30.494Z,6.23
2018-09-04T18:22:58.833Z,6.37
2018-09-04T18:25:27.110Z,6.97
2018-09-04T18:27:55.356Z,5.63
2018-09-04T18:30:23.575Z,4.77
2018-09-04T18:32:51.828Z,5.60
2018-09-04T18:35:20.045Z,5.40
2018-09-04T18:37:48.249Z,7.73
2018-09-04T18:40:16.512Z,4.50
2018-09-04T18:42:44.749Z,6.60
2018-09-04T18:45:30.369Z,6.57
2018-09-04T18:47:58.661Z,4.80
2018-09-04T18:50:26.930Z,4.43
2018-09-04T18:52:55.155Z,6.57
2018-09-04T18:55:23.362Z,4.87
2018-09-04T18:57:51.517Z,4.67
2018-09-04T19:00:19.833Z,4.40
2018-09-04T19:02:48.976Z,6.00
2018-09-04T19:05:17.368Z,5.33
2018-09-04T19:07:46.541Z,8.17
2018-09-04T19:10:15.063Z,4.53
2018-09-04T19:12:43.370Z,5.77
2018-09-04T19:15:11.732Z,5.77
2018-09-04T19:17:40.573Z,5.70
2018-09-04T19:20:09.363Z,6.60
2018-09-04T19:22:37.607Z,4.60
2018-09-04T19:25:05.962Z,8.10
2018-09-04T19:27:34.166Z,6.30
2018-09-04T19:30:02.980Z,6.30
2018-09-04T19:32:31.164Z,6.30
2018-09-04T19:34:59.430Z,8.60
2018-09-04T19:37:27.712Z,8.20
2018-09-04T19:39:55.992Z,5.47
2018-09-04T19:42:24.527Z,6.87
2018-09-04T19:44:52.836Z,5.47
2018-09-04T19:47:21.146Z,5.17
2018-09-04T19:49:49.745Z,5.40
2018-09-04T19:52:18.138Z,4.87
2018-09-04T19:54:46.526Z,4.80
2018-09-04T19:57:15.420Z,4.20
2018-09-04T19:59:43.718Z,5.20
2018-09-04T20:02:11.992Z,5.90
2018-09-04T20:04:40.140Z,5.80
2018-09-04T20:07:08.590Z,8.07
2018-09-04T20:09:37.150Z,5.53
2018-09-04T20:12:05.555Z,6.63
2018-09-04T20:14:34.402Z,5.80
2018-09-04T20:17:02.596Z,6.33
2018-09-04T20:19:30.732Z,6.00
2018-09-04T20:21:59.007Z,7.33
2018-09-04T20:24:27.224Z,7.93
2018-09-04T20:26:55.501Z,6.17
2018-09-04T20:29:23.816Z,5.67
2018-09-04T20:31:52.077Z,5.83
2018-09-04T20:34:20.441Z,4.77
2018-09-04T20:36:48.647Z,5.63
2018-09-04T20:39:17.021Z,8.03
2018-09-04T20:41:45.231Z,5.17
2018-09-04T20:44:13.595Z,6.57
2018-09-04T20:46:42.859Z,5.83
2018-09-04T20:49:11.376Z,5.43
2018-09-04T20:51:39.627Z,4.90
2018-09-04T20:54:08.038Z,6.70
2018-09-04T20:56:36.386Z,7.37
2018-09-04T20:59:21.937Z,6.00
2018-09-04T21:02:07.401Z,6.23
2018-09-04T21:04:52.632Z,5.00
2018-09-04T21:07:24.709Z,5.43
2018-09-04T21:09:58.525Z,7.80
2018-09-04T21:12:27.585Z,6.13
2018-09-04T21:14:56.017Z,7.30
2018-09-04T21:17:24.398Z,6.97
2018-09-04T21:19:52.707Z,6.40
2018-09-04T21:22:20.916Z,5.60
2018-09-04T21:24:49.048Z,5.63
2018-09-04T21:27:17.437Z,7.73
2018-09-04T21:29:45.738Z,5.60
2018-09-04T21:32:14.765Z,5.90
2018-09-04T21:34:42.997Z,6.70
2018-09-04T21:37:12.324Z,5.93
2018-09-04T21:39:40.564Z,7.77
2018-09-04T21:42:08.828Z,6.70
2018-09-04T21:44:37.230Z,6.50
2018-09-04T21:47:05.628Z,7.27
2018-09-04T21:49:33.932Z,7.67
2018-09-04T21:52:02.155Z,7.77
2018-09-04T21:54:30.409Z,6.43
2018-09-04T21:57:02.567Z,8.70
2018-09-04T21:59:31.044Z,7.07
2018-09-04T22:01:59.256Z,6.83
2018-09-04T22:04:27.569Z,7.07
2018-09-04T22:06:55.744Z,8.87
2018-09-04T22:09:23.928Z,7.70
2018-09-04T22:11:52.347Z,5.93
2018-09-04T22:14:20.559Z,6.77
2018-09-04T22:16:49.110Z,7.57
2018-09-04T22:19:17.319Z,8.13
2018-09-04T22:21:45.539Z,6.27
2018-09-04T22:24:14.245Z,8.40
2018-09-04T22:26:42.912Z,9.87
2018-09-04T22:29:11.183Z,7.33
2018-09-04T22:31:39.415Z,8.47
2018-09-04T22:34:07.745Z,8.37
2018-09-04T22:36:36.077Z,8.37
2018-09-04T22:39:06.298Z,7.67
2018-09-04T22:41:35.089Z,6.90
2018-09-04T22:44:03.479Z,6.47
2018-09-04T22:46:32.368Z,6.80
2018-09-04T22:49:00.513Z,6.00
2018-09-04T22:51:35.785Z,6.63
2018-09-04T22:54:05.439Z,9.23
2018-09-04T22:56:34.097Z,8.40
2018-09-04T22:59:02.385Z,8.40
2018-09-04T23:01:31.034Z,9.20
2018-09-04T23:03:59.168Z,7.27
2018-09-04T23:06:27.386Z,7.83
2018-09-04T23:08:55.639Z,6.80
2018-09-04T23:11:24.059Z,8.13
2018-09-04T23:13:52.435Z,7.90
2018-09-04T23:16:20.761Z,8.37
2018-09-04T23:18:56.098Z,6.73
2018-09-04T23:21:24.399Z,5.77
2018-09-04T23:23:52.617Z,7.63
2018-09-04T23:26:20.963Z,14.10
2018-09-04T23:28:49.259Z,6.27
2018-09-04T23:31:17.382Z,7.80
2018-09-04T23:33:45.756Z,6.87
2018-09-04T23:36:14.520Z,9.13
2018-09-04T23:38:42.740Z,7.33
2018-09-04T23:41:10.939Z,9.03
2018-09-04T23:43:39.114Z,7.80
2018-09-04T23:46:07.255Z,8.03
2018-09-04T23:48:35.570Z,7.43
2018-09-04T23:51:03.756Z,7.40
2018-09-04T23:53:32.098Z,9.17
2018-09-04T23:56:00.915Z,8.50
2018-09-04T23:58:29.207Z,11.10
